createdAt,value
2018-02-23T00:00:22.332Z,3.36
2018-02-23T00:02:49.714Z,3.35
2018-02-23T00:05:17.108Z,3.28
2018-02-23T00:07:47.302Z,3.05
2018-02-23T00:10:14.706Z,3.33
2018-02-23T00:12:42.087Z,3.47
2018-02-23T00:15:09.474Z,3.52
2018-02-23T00:17:36.878Z,3.44
2018-02-23T00:20:04.274Z,3.21
2018-02-23T00:22:41.615Z,3.13
2018-02-23T00:25:09.147Z,3.25
2018-02-23T00:27:36.533Z,2.87
2018-02-23T00:30:03.893Z,3.38
2018-02-23T00:32:31.281Z,3.25
2018-02-23T00:34:58.711Z,3.30
2018-02-23T00:37:26.079Z,3.12
2018-02-23T00:39:53.461Z,3.10
2018-02-23T00:42:21.086Z,2.97
2018-02-23T00:44:48.466Z,3.27
2018-02-23T00:47:16.030Z,2.92
2018-02-23T00:49:43.398Z,3.04
2018-02-23T00:52:10.832Z,3.05
2018-02-23T00:54:38.261Z,3.10
2018-02-23T00:57:05.703Z,3.39
2018-02-23T00:59:33.062Z,2.98
2018-02-23T01:02:00.751Z,2.86
2018-02-23T01:04:28.177Z,3.05
2018-02-23T01:06:55.539Z,3.02
2018-02-23T01:09:23.002Z,2.97
2018-02-23T01:11:50.385Z,2.83
2018-02-23T01:14:18.465Z,2.88
2018-02-23T01:16:46.136Z,3.17
2018-02-23T01:19:13.541Z,3.29
2018-02-23T01:21:40.914Z,3.36
2018-02-23T01:24:08.651Z,3.23
2018-02-23T01:26:36.060Z,3.25
2018-02-23T01:29:03.501Z,3.08
2018-02-23T01:31:30.981Z,3.25
2018-02-23T01:33:58.383Z,3.05
2018-02-23T01:36:25.758Z,3.13
2018-02-23T01:38:53.164Z,3.06
2018-02-23T01:41:20.725Z,3.26
2018-02-23T01:43:48.119Z,3.25
2018-02-23T01:46:16.305Z,3.05
2018-02-23T01:48:43.699Z,3.04
2018-02-23T01:51:11.440Z,2.87
2018-02-23T01:53:38.981Z,3.16
2018-02-23T01:56:06.668Z,3.04
2018-02-23T01:58:34.284Z,2.97
2018-02-23T02:01:01.727Z,2.99
2018-02-23T02:03:29.106Z,3.13
2018-02-23T02:05:56.501Z,3.07
2018-02-23T02:08:23.882Z,2.88
2018-02-23T02:10:51.316Z,2.89
2018-02-23T02:13:18.691Z,3.04
2018-02-23T02:15:46.315Z,2.90
2018-02-23T02:18:13.703Z,2.94
2018-02-23T02:20:41.069Z,2.81
2018-02-23T02:23:08.459Z,2.87
2018-02-23T02:25:35.853Z,2.91
2018-02-23T02:28:05.307Z,3.08
2018-02-23T02:30:32.758Z,2.86
2018-02-23T02:33:00.182Z,2.97
2018-02-23T02:35:27.733Z,2.96
2018-02-23T02:37:55.102Z,2.77
2018-02-23T02:40:22.724Z,2.71
2018-02-23T02:42:50.158Z,2.66
2018-02-23T02:45:17.831Z,2.76
2018-02-23T02:47:45.590Z,2.61
2018-02-23T02:50:13.088Z,2.89
2018-02-23T02:52:40.504Z,2.64
2018-02-23T02:55:08.096Z,2.64
2018-02-23T02:57:35.467Z,2.75
2018-02-23T03:00:02.982Z,2.67
2018-02-23T03:02:30.398Z,2.65
2018-02-23T03:04:57.791Z,2.39
2018-02-23T03:07:25.216Z,2.32
2018-02-23T03:09:52.641Z,2.31
2018-02-23T03:12:20.067Z,2.27
2018-02-23T03:14:47.461Z,2.31
2018-02-23T03:17:14.901Z,2.63
2018-02-23T03:19:42.342Z,2.75
2018-02-23T03:22:09.902Z,2.68
2018-02-23T03:24:37.284Z,2.82
2018-02-23T03:27:04.877Z,2.81
2018-02-23T03:29:32.267Z,2.27
2018-02-23T03:31:59.637Z,2.49
2018-02-23T03:34:27.309Z,2.58
2018-02-23T03:36:55.061Z,2.43
2018-02-23T03:39:22.481Z,2.47
2018-02-23T03:41:49.890Z,2.40
2018-02-23T03:44:17.268Z,2.31
2018-02-23T03:46:44.654Z,2.27
2018-02-23T03:49:12.094Z,2.13
2018-02-23T03:51:39.500Z,2.30
2018-02-23T03:54:06.877Z,2.25
2018-02-23T03:56:34.242Z,2.06
2018-02-23T03:59:01.640Z,2.27
2018-02-23T04:01:29.187Z,1.97
2018-02-23T04:03:56.642Z,2.20
2018-02-23T04:06:24.038Z,1.87
2018-02-23T04:08:51.425Z,2.21
2018-02-23T04:11:18.864Z,2.32
2018-02-23T04:13:46.850Z,2.32
2018-02-23T04:16:14.218Z,2.23
2018-02-23T04:18:41.599Z,2.00
2018-02-23T04:21:08.965Z,1.74
2018-02-23T04:23:36.616Z,2.03
2018-02-23T04:26:03.978Z,2.20
2018-02-23T04:28:31.443Z,2.09
2018-02-23T04:30:58.774Z,1.84
2018-02-23T04:33:26.272Z,1.93
2018-02-23T04:35:53.633Z,1.78
2018-02-23T04:38:21.593Z,2.21
2018-02-23T04:40:48.978Z,2.19
2018-02-23T04:43:17.060Z,2.22
2018-02-23T04:45:44.477Z,1.92
2018-02-23T04:48:11.844Z,1.90
2018-02-23T04:50:39.275Z,2.14
2018-02-23T04:53:06.679Z,1.85
2018-02-23T04:55:34.062Z,1.91
2018-02-23T04:58:01.470Z,2.01
2018-02-23T05:00:28.830Z,1.78
2018-02-23T05:02:56.342Z,1.89
2018-02-23T05:05:23.718Z,1.94
2018-02-23T05:07:51.118Z,1.80
2018-02-23T05:10:18.560Z,1.53
2018-02-23T05:12:45.985Z,1.56
2018-02-23T05:15:14.371Z,1.64
2018-02-23T05:17:41.749Z,1.79
2018-02-23T05:20:09.122Z,1.86
2018-02-23T05:22:36.487Z,1.79
2018-02-23T05:25:04.935Z,1.82
2018-02-23T05:27:32.449Z,1.20
2018-02-23T05:29:59.885Z,1.52
2018-02-23T05:32:27.266Z,1.48
2018-02-23T05:34:54.636Z,1.61
2018-02-23T05:37:22.035Z,1.76
2018-02-23T05:39:49.418Z,1.52
2018-02-23T05:42:17.290Z,1.63
2018-02-23T05:44:44.674Z,1.57
2018-02-23T05:47:12.062Z,1.87
2018-02-23T05:49:39.430Z,1.55
2018-02-23T05:52:06.815Z,1.35
2018-02-23T05:54:34.234Z,1.30
2018-02-23T05:57:01.618Z,1.35
2018-02-23T05:59:29.049Z,1.40
2018-02-23T06:01:56.409Z,1.63
2018-02-23T06:04:23.992Z,1.12
2018-02-23T06:06:51.357Z,1.33
2018-02-23T06:09:18.751Z,1.33
2018-02-23T06:11:46.231Z,1.08
2018-02-23T06:14:13.972Z,1.59
2018-02-23T06:16:41.361Z,1.14
2018-02-23T06:19:08.754Z,1.24
2018-02-23T06:21:36.142Z,1.28
2018-02-23T06:24:03.518Z,1.39
2018-02-23T06:26:30.902Z,1.31
2018-02-23T06:28:58.298Z,1.29
2018-02-23T06:31:25.705Z,1.37
2018-02-23T06:33:53.090Z,1.09
2018-02-23T06:36:20.574Z,0.94
2018-02-23T06:38:47.950Z,1.27
2018-02-23T06:41:15.359Z,0.96
2018-02-23T06:43:42.739Z,1.26
2018-02-23T06:46:10.118Z,1.33
2018-02-23T06:48:38.293Z,1.39
2018-02-23T06:51:05.697Z,1.36
2018-02-23T06:53:33.086Z,1.50
2018-02-23T06:56:00.466Z,1.55
2018-02-23T06:58:27.841Z,1.46
2018-02-23T07:00:55.359Z,1.38
2018-02-23T07:03:22.774Z,1.23
2018-02-23T07:05:50.248Z,1.30
2018-02-23T07:08:17.721Z,1.20
2018-02-23T07:10:45.144Z,0.98
2018-02-23T07:13:12.515Z,1.20
2018-02-23T07:15:39.902Z,1.26
2018-02-23T07:18:07.405Z,1.64
2018-02-23T07:20:34.734Z,1.51
2018-02-23T07:23:02.229Z,1.57
2018-02-23T07:25:29.625Z,1.51
2018-02-23T07:27:57.012Z,1.70
2018-02-23T07:30:24.419Z,1.90
2018-02-23T07:32:51.817Z,1.82
2018-02-23T07:35:19.203Z,1.75
2018-02-23T07:37:46.599Z,1.60
2018-02-23T07:40:14.174Z,1.59
2018-02-23T07:42:41.586Z,1.83
2018-02-23T07:45:09.031Z,1.70
2018-02-23T07:47:36.400Z,1.67
2018-02-23T07:50:03.790Z,1.92
2018-02-23T07:52:31.202Z,1.70
2018-02-23T07:54:58.607Z,1.91
2018-02-23T07:57:27.122Z,2.08
2018-02-23T07:59:54.718Z,2.00
2018-02-23T08:02:22.089Z,2.00
2018-02-23T08:04:49.470Z,1.94
2018-02-23T08:07:16.893Z,2.12
2018-02-23T08:09:44.282Z,2.26
2018-02-23T08:12:11.662Z,2.70
2018-02-23T08:14:39.073Z,2.72
2018-02-23T08:17:06.487Z,2.50
2018-02-23T08:19:34.009Z,2.58
2018-02-23T08:22:01.425Z,2.54
2018-02-23T08:24:28.808Z,2.94
2018-02-23T08:26:56.232Z,3.02
2018-02-23T08:29:23.611Z,2.69
2018-02-23T08:31:51.933Z,3.04
2018-02-23T08:34:19.325Z,3.00
2018-02-23T08:36:46.697Z,2.94
2018-02-23T08:39:14.078Z,3.32
2018-02-23T08:41:41.512Z,3.34
2018-02-23T08:44:08.923Z,3.27
2018-02-23T08:46:36.341Z,3.38
2018-02-23T08:49:03.757Z,3.16
2018-02-23T08:51:31.154Z,3.01
2018-02-23T08:53:58.557Z,3.00
2018-02-23T08:56:26.041Z,3.29
2018-02-23T08:58:53.418Z,3.34
2018-02-23T09:01:20.852Z,3.72
2018-02-23T09:03:48.342Z,3.66
2018-02-23T09:06:15.743Z,3.91
2018-02-23T09:08:43.209Z,4.17
2018-02-23T09:11:10.685Z,4.09
2018-02-23T09:13:38.060Z,4.05
2018-02-23T09:16:05.438Z,4.41
2018-02-23T09:18:32.854Z,4.33
2018-02-23T09:21:00.915Z,4.17
2018-02-23T09:23:28.528Z,4.36
2018-02-23T09:25:55.907Z,4.46
2018-02-23T09:28:23.348Z,4.58
2018-02-23T09:30:52.169Z,4.27
2018-02-23T09:33:19.559Z,4.78
2018-02-23T09:35:46.962Z,4.82
2018-02-23T09:38:14.346Z,5.17
2018-02-23T09:40:41.737Z,5.21
2018-02-23T09:43:09.107Z,5.38
2018-02-23T09:45:36.543Z,5.18
2018-02-23T09:48:03.990Z,4.98
2018-02-23T09:50:31.345Z,5.23
2018-02-23T09:52:58.737Z,4.94
2018-02-23T09:55:26.201Z,4.86
2018-02-23T09:57:53.583Z,5.01
2018-02-23T10:00:21.020Z,5.00
2018-02-23T10:02:48.559Z,5.56
2018-02-23T10:05:15.978Z,5.70
2018-02-23T10:07:43.348Z,5.79
2018-02-23T10:10:10.722Z,5.89
2018-02-23T10:12:38.370Z,5.74
2018-02-23T10:15:05.757Z,5.16
2018-02-23T10:17:33.209Z,5.31
2018-02-23T10:20:00.590Z,5.73
2018-02-23T10:22:28.045Z,5.86
2018-02-23T10:24:55.454Z,5.83
2018-02-23T10:27:22.855Z,6.07
2018-02-23T10:29:50.297Z,5.67
2018-02-23T10:32:17.662Z,6.02
2018-02-23T10:34:45.056Z,6.30
2018-02-23T10:37:12.436Z,6.14
2018-02-23T10:39:39.890Z,5.87
2018-02-23T10:42:07.339Z,5.81
2018-02-23T10:44:34.724Z,6.25
2018-02-23T10:47:02.155Z,6.36
2018-02-23T10:49:33.724Z,6.49
2018-02-23T10:52:02.307Z,6.40
2018-02-23T10:54:29.745Z,6.63
2018-02-23T10:56:57.085Z,6.64
2018-02-23T10:59:24.464Z,6.76
2018-02-23T11:01:51.861Z,6.73
2018-02-23T11:04:19.249Z,6.72
2018-02-23T11:06:46.654Z,6.88
2018-02-23T11:09:14.078Z,6.68
2018-02-23T11:11:41.457Z,6.58
2018-02-23T11:14:08.872Z,6.34
2018-02-23T11:16:36.328Z,6.27
2018-02-23T11:19:03.726Z,6.42
2018-02-23T11:21:31.115Z,6.60
2018-02-23T11:23:58.515Z,6.56
2018-02-23T11:26:25.899Z,6.47
2018-02-23T11:28:53.315Z,6.70
2018-02-23T11:31:20.714Z,6.69
2018-02-23T11:33:49.012Z,6.48
2018-02-23T11:36:16.538Z,6.55
2018-02-23T11:38:43.911Z,6.80
2018-02-23T11:41:11.282Z,7.02
2018-02-23T11:43:38.666Z,7.40
2018-02-23T11:46:06.079Z,7.23
2018-02-23T11:48:33.461Z,7.92
2018-02-23T11:51:00.868Z,8.22
2018-02-23T11:53:28.292Z,8.34
2018-02-23T11:55:55.705Z,8.72
2018-02-23T11:58:23.070Z,8.79
2018-02-23T12:00:50.495Z,9.12
2018-02-23T12:03:17.858Z,9.44
2018-02-23T12:05:45.233Z,9.25
2018-02-23T12:08:12.752Z,9.71
2018-02-23T12:10:40.195Z,9.36
2018-02-23T12:13:07.764Z,9.82
2018-02-23T12:15:35.225Z,10.25
2018-02-23T12:18:02.701Z,10.06
2018-02-23T12:20:30.107Z,10.28
2018-02-23T12:22:57.490Z,10.82
2018-02-23T12:25:27.424Z,10.96
2018-02-23T12:27:56.058Z,10.72
2018-02-23T12:30:23.580Z,11.34
2018-02-23T12:32:51.090Z,11.33
2018-02-23T12:35:20.315Z,11.77
2018-02-23T12:37:47.766Z,11.59
2018-02-23T12:40:15.632Z,11.70
2018-02-23T12:42:43.134Z,11.66
2018-02-23T12:45:10.536Z,11.82
2018-02-23T12:47:37.983Z,12.76
2018-02-23T12:50:06.106Z,12.70
2018-02-23T12:52:33.496Z,12.83
2018-02-23T12:55:00.908Z,13.03
2018-02-23T12:57:28.395Z,13.94
2018-02-23T12:59:55.834Z,14.29
2018-02-23T13:02:23.265Z,14.14
2018-02-23T13:04:50.904Z,14.58
2018-02-23T13:07:19.429Z,14.92
2018-02-23T13:09:46.908Z,14.71
2018-02-23T13:12:14.521Z,14.32
2018-02-23T13:14:48.075Z,14.90
2018-02-23T13:17:15.448Z,15.24
2018-02-23T13:19:42.831Z,15.86
2018-02-23T13:22:10.692Z,16.00
2018-02-23T13:24:38.142Z,16.88
2018-02-23T13:27:11.055Z,17.33
2018-02-23T13:29:38.481Z,17.10
2018-02-23T13:32:05.867Z,18.02
2018-02-23T13:34:33.266Z,17.82
2018-02-23T13:37:00.677Z,17.44
2018-02-23T13:39:28.283Z,17.43
2018-02-23T13:41:55.830Z,16.69
2018-02-23T13:44:23.404Z,17.40
2018-02-23T13:46:52.679Z,17.34
2018-02-23T13:49:20.213Z,17.49
2018-02-23T13:51:50.163Z,17.51
2018-02-23T13:54:27.263Z,17.85
2018-02-23T13:56:54.634Z,17.41
2018-02-23T13:59:22.057Z,17.36
2018-02-23T14:01:49.754Z,17.84
2018-02-23T14:04:17.127Z,17.66
2018-02-23T14:06:48.473Z,17.16
2018-02-23T14:09:16.069Z,18.82
2018-02-23T14:11:43.450Z,18.33
2018-02-23T14:14:10.843Z,18.04
2018-02-23T14:16:39.583Z,18.31
2018-02-23T14:19:06.965Z,18.47
2018-02-23T14:21:35.010Z,18.68
2018-02-23T14:24:02.410Z,17.91
2018-02-23T14:26:29.850Z,18.21
2018-02-23T14:28:57.478Z,18.02
2018-02-23T14:31:24.883Z,18.04
2018-02-23T14:33:52.269Z,17.71
2018-02-23T14:36:20.210Z,18.12
2018-02-23T14:38:47.609Z,18.53
2018-02-23T14:41:14.992Z,19.44
2018-02-23T14:43:43.574Z,18.58
2018-02-23T14:46:10.971Z,19.10
2018-02-23T14:51:45.045Z,18.26
2018-02-23T14:54:22.811Z,18.58
2018-02-23T14:56:53.871Z,18.44
2018-02-23T14:59:21.461Z,18.13
2018-02-23T15:01:50.074Z,18.31
2018-02-23T15:04:17.446Z,18.05
2018-02-23T15:06:45.505Z,18.23
2018-02-23T15:09:12.897Z,17.95
2018-02-23T15:11:40.306Z,17.47
2018-02-23T15:14:07.898Z,16.96
2018-02-23T15:16:35.323Z,15.30
2018-02-23T15:19:02.891Z,14.05
2018-02-23T15:21:30.281Z,13.27
2018-02-23T15:23:57.708Z,12.76
2018-02-23T15:26:25.090Z,12.64
2018-02-23T15:28:52.723Z,12.00
2018-02-23T15:31:32.123Z,11.91
2018-02-23T15:33:59.501Z,11.05
2018-02-23T15:36:27.076Z,11.52
2018-02-23T15:38:54.635Z,11.19
2018-02-23T15:41:22.034Z,11.05
2018-02-23T15:43:50.237Z,10.51
2018-02-23T15:46:17.650Z,10.07
2018-02-23T15:48:46.567Z,10.40
2018-02-23T15:51:14.293Z,10.32
2018-02-23T15:53:41.723Z,10.47
2018-02-23T15:56:09.114Z,10.14
2018-02-23T15:58:37.484Z,9.61
2018-02-23T16:01:05.492Z,9.71
2018-02-23T16:03:32.899Z,9.29
2018-02-23T16:06:00.275Z,9.40
2018-02-23T16:08:27.689Z,9.30
2018-02-23T16:10:55.106Z,9.36
2018-02-23T16:13:22.506Z,9.05
2018-02-23T16:15:50.641Z,9.41
2018-02-23T16:18:18.054Z,9.46
2018-02-23T16:20:46.629Z,9.17
2018-02-23T16:23:15.010Z,8.84
2018-02-23T16:25:42.442Z,8.65
2018-02-23T16:28:13.630Z,8.77
2018-02-23T16:30:49.285Z,8.67
2018-02-23T16:33:17.008Z,8.64
2018-02-23T16:35:44.437Z,8.88
2018-02-23T16:38:11.916Z,8.64
2018-02-23T16:40:39.285Z,8.68
2018-02-23T16:43:06.974Z,8.49
2018-02-23T16:45:34.374Z,8.25
2018-02-23T16:48:01.874Z,8.07
2018-02-23T16:50:29.555Z,8.11
2018-02-23T16:52:56.986Z,7.92
2018-02-23T16:55:24.418Z,7.97
2018-02-23T16:57:51.808Z,7.94
2018-02-23T17:00:19.241Z,8.10
2018-02-23T17:02:46.562Z,8.18
2018-02-23T17:05:13.960Z,8.13
2018-02-23T17:07:41.342Z,7.72
2018-02-23T17:10:08.805Z,7.92
2018-02-23T17:12:36.281Z,7.74
2018-02-23T17:15:03.665Z,7.80
2018-02-23T17:17:31.063Z,7.85
2018-02-23T17:19:58.486Z,7.78
2018-02-23T17:22:25.868Z,7.82
2018-02-23T17:24:54.754Z,7.37
2018-02-23T17:27:22.151Z,7.18
2018-02-23T17:29:49.550Z,6.86
2018-02-23T17:32:16.990Z,6.97
2018-02-23T17:34:44.717Z,6.93
2018-02-23T17:37:12.177Z,6.87
2018-02-23T17:39:39.587Z,7.04
2018-02-23T17:42:06.971Z,7.01
2018-02-23T17:44:34.379Z,6.89
2018-02-23T17:47:03.056Z,7.02
2018-02-23T17:49:30.698Z,7.01
2018-02-23T17:51:58.092Z,6.91
2018-02-23T17:54:25.476Z,6.93
2018-02-23T17:56:52.930Z,7.02
2018-02-23T17:59:20.342Z,7.12
2018-02-23T18:01:47.726Z,7.06
2018-02-23T18:04:15.108Z,6.97
2018-02-23T18:06:42.505Z,7.11
2018-02-23T18:09:10.049Z,7.05
2018-02-23T18:11:37.578Z,7.16
2018-02-23T18:14:04.984Z,7.01
2018-02-23T18:16:34.453Z,6.76
2018-02-23T18:19:02.263Z,6.98
2018-02-23T18:21:31.480Z,6.79
2018-02-23T18:23:58.922Z,6.52
2018-02-23T18:26:26.279Z,6.31
2018-02-23T18:28:53.706Z,6.37
2018-02-23T18:31:21.096Z,6.62
2018-02-23T18:33:48.549Z,6.52
2018-02-23T18:36:16.171Z,6.43
2018-02-23T18:38:43.554Z,6.38
2018-02-23T18:41:10.945Z,6.35
2018-02-23T18:43:38.513Z,6.32
2018-02-23T18:46:08.460Z,6.58
2018-02-23T18:48:35.870Z,6.28
2018-02-23T18:51:03.311Z,5.94
2018-02-23T18:53:31.133Z,6.24
2018-02-23T18:55:58.515Z,6.07
2018-02-23T18:58:26.136Z,6.36
2018-02-23T19:00:53.513Z,6.24
2018-02-23T19:03:22.774Z,6.28
2018-02-23T19:05:50.149Z,5.97
2018-02-23T19:08:18.186Z,5.91
2018-02-23T19:10:45.612Z,5.71
2018-02-23T19:13:13.101Z,5.87
2018-02-23T19:15:40.501Z,5.95
2018-02-23T19:18:07.969Z,5.74
2018-02-23T19:20:35.370Z,5.42
2018-02-23T19:23:02.754Z,5.69
2018-02-23T19:25:30.620Z,5.99
2018-02-23T19:27:58.064Z,5.81
2018-02-23T19:30:25.454Z,5.63
2018-02-23T19:32:52.839Z,5.78
2018-02-23T19:35:20.232Z,5.80
2018-02-23T19:37:48.102Z,5.44
2018-02-23T19:40:15.777Z,5.46
2018-02-23T19:42:43.359Z,5.41
2018-02-23T19:45:10.855Z,5.23
2018-02-23T19:47:38.234Z,5.19
2018-02-23T19:50:05.656Z,5.11
2018-02-23T19:52:33.123Z,4.92
2018-02-23T19:55:00.709Z,5.13
2018-02-23T19:57:28.117Z,5.36
2018-02-23T19:59:55.506Z,5.32
2018-02-23T20:02:23.846Z,5.41
2018-02-23T20:04:51.768Z,5.15
2018-02-23T20:07:20.070Z,5.35
2018-02-23T20:09:47.509Z,5.15
2018-02-23T20:12:14.909Z,5.25
2018-02-23T20:14:42.299Z,5.30
2018-02-23T20:17:09.808Z,5.28
2018-02-23T20:19:37.185Z,5.00
2018-02-23T20:22:05.696Z,5.05
2018-02-23T20:24:33.066Z,4.93
2018-02-23T20:27:00.456Z,5.10
2018-02-23T20:29:27.874Z,4.95
2018-02-23T20:31:55.320Z,4.71
2018-02-23T20:34:22.713Z,4.79
2018-02-23T20:36:51.316Z,4.54
2018-02-23T20:39:18.687Z,4.72
2018-02-23T20:41:46.061Z,4.65
2018-02-23T20:44:13.461Z,4.73
2018-02-23T20:46:40.891Z,4.56
2018-02-23T20:49:08.336Z,4.28
2018-02-23T20:51:35.814Z,4.18
2018-02-23T20:54:03.486Z,4.26
2018-02-23T20:56:31.208Z,4.47
2018-02-23T20:58:58.578Z,4.33
2018-02-23T21:01:25.995Z,4.24
2018-02-23T21:03:53.366Z,4.52
2018-02-23T21:06:21.215Z,4.80
2018-02-23T21:08:49.379Z,4.81
2018-02-23T21:11:16.764Z,4.56
2018-02-23T21:13:44.158Z,4.37
2018-02-23T21:16:11.704Z,3.92
2018-02-23T21:18:39.492Z,3.97
2018-02-23T21:21:07.614Z,4.01
2018-02-23T21:23:34.987Z,4.04
2018-02-23T21:26:02.450Z,3.72
2018-02-23T21:28:29.844Z,3.99
2018-02-23T21:30:57.240Z,4.16
2018-02-23T21:33:24.947Z,4.43
2018-02-23T21:35:52.492Z,4.15
2018-02-23T21:38:21.703Z,4.05
2018-02-23T21:40:49.135Z,3.71
2018-02-23T21:43:17.585Z,4.03
2018-02-23T21:45:44.990Z,3.57
2018-02-23T21:48:12.769Z,3.79
2018-02-23T21:50:41.366Z,3.37
2018-02-23T21:53:08.756Z,3.55
2018-02-23T21:55:37.459Z,3.53
2018-02-23T21:58:05.466Z,3.44
2018-02-23T22:00:32.920Z,3.58
2018-02-23T22:03:00.539Z,3.37
2018-02-23T22:05:32.011Z,3.22
2018-02-23T22:07:59.918Z,3.20
2018-02-23T22:10:27.319Z,3.50
2018-02-23T22:12:54.707Z,3.20
2018-02-23T22:15:22.169Z,3.10
2018-02-23T22:17:49.538Z,3.22
2018-02-23T22:20:18.007Z,3.36
2018-02-23T22:22:45.626Z,3.46
2018-02-23T22:25:13.006Z,3.26
2018-02-23T22:27:40.391Z,3.20
2018-02-23T22:30:07.779Z,2.78
2018-02-23T22:32:37.378Z,3.05
2018-02-23T22:35:04.758Z,3.36
2018-02-23T22:37:32.175Z,2.94
2018-02-23T22:40:00.742Z,2.97
2018-02-23T22:42:28.717Z,3.17
2018-02-23T22:44:56.200Z,2.98
2018-02-23T22:47:23.609Z,3.30
2018-02-23T22:49:51.377Z,3.75
2018-02-23T22:52:19.018Z,3.83
2018-02-23T22:54:46.538Z,3.21
2018-02-23T22:57:13.983Z,3.28
2018-02-23T22:59:41.458Z,3.13
2018-02-23T23:02:09.163Z,2.97
2018-02-23T23:04:36.623Z,2.80
2018-02-23T23:07:20.261Z,2.51
2018-02-23T23:09:47.679Z,2.46
2018-02-23T23:12:15.079Z,2.81
2018-02-23T23:14:44.158Z,2.97
2018-02-23T23:17:12.589Z,2.36
2018-02-23T23:19:39.975Z,2.68
2018-02-23T23:22:07.352Z,2.53
2018-02-23T23:24:34.783Z,2.43
2018-02-23T23:27:02.175Z,2.31
2018-02-23T23:29:30.376Z,2.66
2018-02-23T23:31:58.867Z,2.76
2018-02-23T23:34:26.246Z,2.44
2018-02-23T23:36:53.638Z,2.51
2018-02-23T23:39:21.026Z,2.64
2018-02-23T23:41:48.431Z,2.54
2018-02-23T23:44:15.814Z,2.48
2018-02-23T23:46:43.237Z,2.54
2018-02-23T23:49:10.617Z,2.76
2018-02-23T23:51:38.026Z,2.78
2018-02-23T23:54:05.393Z,2.69
2018-02-23T23:56:33.265Z,3.05
2018-02-23T23:59:01.949Z,2.94
